Time;durP1;ratioP1;P1;durP2;ratioP2;P2;SDS_P1;SDS_P2;PMS_P1;PMS_P2;Temp;Humidity;BMP_temperature;BMP_pressure;BME280_temperature;BME280_humidity;BME280_pressure;Samples;Min_cycle;Max_cycle;Signal;HPM_P1;HPM_P2
2021/05/21 00:00:42;;;;;;;3.62;2.42;;;;;;;11.29;75.49;99074.59;1754351;80;21440;-53
2021/05/21 00:03:08;;;;;;;2.70;1.42;;;;;;;11.30;75.52;99072.77;1753262;80;21083;-53
2021/05/21 00:05:35;;;;;;;4.40;1.45;;;;;;;11.31;75.51;99077.20;1751434;80;21067;-53
2021/05/21 00:08:01;;;;;;;4.65;1.47;;;;;;;11.31;75.52;99075.33;1754954;79;21187;-53
2021/05/21 00:10:28;;;;;;;3.92;1.30;;;;;;;11.32;75.51;99074.86;1755787;80;21491;-53
2021/05/21 00:12:56;;;;;;;3.30;1.37;;;;;;;11.33;75.55;99083.33;1752298;79;21188;-53
2021/05/21 00:15:22;;;;;;;2.85;1.40;;;;;;;11.33;75.52;99080.16;1752192;80;21099;-53
2021/05/21 00:17:50;;;;;;;3.67;1.40;;;;;;;11.34;75.48;99081.89;1755743;80;21168;-53
2021/05/21 00:20:16;;;;;;;4.30;1.42;;;;;;;11.37;75.44;99089.80;1753843;80;21573;-53
2021/05/21 00:22:42;;;;;;;4.55;1.12;;;;;;;11.40;75.37;99094.62;1753056;79;21528;-53
2021/05/21 00:25:09;;;;;;;11.22;1.12;;;;;;;11.40;75.26;99098.15;1753355;80;21069;-53
2021/05/21 00:27:36;;;;;;;2.83;0.90;;;;;;;11.42;75.22;99096.71;1758072;80;20913;-53
2021/05/21 00:30:04;;;;;;;3.70;0.98;;;;;;;11.43;75.17;99099.32;1741010;80;20957;-53
2021/05/21 00:32:30;;;;;;;1.98;0.93;;;;;;;11.44;75.13;99096.14;1756770;79;21545;-52
2021/05/21 00:34:57;;;;;;;2.58;0.90;;;;;;;11.47;75.06;99105.40;1761092;80;21553;-53
2021/05/21 00:37:25;;;;;;;2.35;1.00;;;;;;;11.49;75.01;99098.06;1758013;80;21384;-53
2021/05/21 00:39:53;;;;;;;2.95;0.90;;;;;;;11.49;74.93;99103.45;1758126;80;21250;-52
2021/05/21 00:42:19;;;;;;;1.72;0.98;;;;;;;11.49;74.86;99110.19;1756601;80;20972;-52
2021/05/21 00:44:58;;;;;;;1.30;0.95;;;;;;;11.48;74.77;99108.00;1697425;83;20945;-52
2021/05/21 00:47:24;;;;;;;2.70;1.00;;;;;;;11.48;74.70;99115.22;1759791;80;20988;-52
2021/05/21 00:49:51;;;;;;;3.30;1.30;;;;;;;11.48;74.63;99114.73;1757233;80;20973;-52
2021/05/21 00:52:18;;;;;;;1.55;1.12;;;;;;;11.49;74.55;99112.88;1752265;80;20921;-52
2021/05/21 00:54:47;;;;;;;4.33;1.12;;;;;;;11.51;74.50;99116.36;1757680;79;20949;-52
2021/05/21 00:57:13;;;;;;;1.62;0.90;;;;;;;11.53;74.48;99111.74;1755857;80;20969;-52
2021/05/21 00:59:41;;;;;;;2.37;1.30;;;;;;;11.51;74.39;99121.75;1760088;80;20981;-53
2021/05/21 01:02:07;;;;;;;1.40;1.10;;;;;;;11.47;74.30;99117.52;1760245;79;20917;-53
2021/05/21 01:04:35;;;;;;;5.80;1.72;;;;;;;11.42;74.33;99122.31;1771836;78;20912;-52
2021/05/21 01:07:05;;;;;;;4.78;1.60;;;;;;;11.36;74.37;99116.35;1771015;79;21004;-52
2021/05/21 01:09:32;;;;;;;3.83;1.20;;;;;;;11.32;74.35;99120.18;1769438;79;20896;-52
2021/05/21 01:12:00;;;;;;;2.47;1.10;;;;;;;11.28;74.37;99117.78;1770141;79;21051;-53
2021/05/21 01:14:27;;;;;;;2.17;1.00;;;;;;;11.24;74.37;99116.22;1770143;78;20897;-52
2021/05/21 01:16:54;;;;;;;2.40;1.10;;;;;;;11.19;74.44;99119.69;1769358;79;21029;-52
2021/05/21 01:19:21;;;;;;;1.42;0.85;;;;;;;11.14;74.49;99122.67;1765662;79;21150;-52
2021/05/21 01:21:48;;;;;;;2.98;0.95;;;;;;;11.10;74.56;99123.80;1707298;82;21194;-53
2021/05/21 01:24:15;;;;;;;3.42;1.20;;;;;;;11.07;74.68;99125.80;1702248;82;21134;-53
2021/05/21 01:26:41;;;;;;;2.72;0.90;;;;;;;11.05;74.63;99121.01;1706769;82;21103;-52
2021/05/21 01:29:08;;;;;;;3.92;1.20;;;;;;;11.01;74.61;99124.35;1733052;80;21149;-52
2021/05/21 01:31:35;;;;;;;3.50;1.00;;;;;;;10.97;74.42;99122.82;1734129;80;21159;-52
2021/05/21 01:34:02;;;;;;;4.58;1.15;;;;;;;10.91;74.47;99128.55;1733352;80;20985;-52
2021/05/21 01:36:28;;;;;;;5.30;1.00;;;;;;;10.87;74.44;99129.70;1737029;80;21659;-53
2021/05/21 01:39:10;;;;;;;1.50;0.90;;;;;;;10.84;74.41;99128.05;1730384;80;21183;-52
2021/05/21 01:41:37;;;;;;;14.73;1.30;;;;;;;10.80;74.41;99128.34;1714339;82;20973;-53
2021/05/21 01:44:05;;;;;;;3.62;0.85;;;;;;;10.77;74.29;99129.85;1708391;82;21433;-53
2021/05/21 01:46:33;;;;;;;4.08;1.00;;;;;;;10.72;74.25;99131.45;1709262;82;21522;-52
2021/05/21 01:48:59;;;;;;;2.08;1.02;;;;;;;10.68;74.13;99129.91;1731505;81;21091;-52
2021/05/21 01:51:27;;;;;;;6.05;1.20;;;;;;;10.66;74.16;99134.98;1705990;82;21107;-52
2021/05/21 01:54:16;;;;;;;4.55;0.90;;;;;;;10.62;74.13;99142.39;1683892;83;21049;-52
2021/05/21 01:56:43;;;;;;;3.42;0.90;;;;;;;10.57;74.09;99148.50;1700084;82;21862;-53
2021/05/21 01:59:10;;;;;;;1.67;0.98;;;;;;;10.51;73.93;99155.11;1712391;82;21411;-52
2021/05/21 02:01:39;;;;;;;2.67;0.70;;;;;;;10.46;74.02;99153.65;1705125;82;21131;-53
2021/05/21 02:04:05;;;;;;;4.85;0.90;;;;;;;10.41;74.04;99159.28;1724373;81;21008;-50
2021/05/21 02:06:35;;;;;;;4.72;0.70;;;;;;;10.38;74.03;99157.26;1759105;79;21799;-52
2021/05/21 02:09:03;;;;;;;2.08;0.60;;;;;;;10.35;74.02;99162.33;1759068;79;22666;-50
2021/05/21 02:11:29;;;;;;;1.90;0.68;;;;;;;10.32;74.07;99159.80;1765357;79;20932;-50
2021/05/21 02:13:56;;;;;;;0.78;0.60;;;;;;;10.29;74.05;99164.02;1761433;79;21079;-53
2021/05/21 02:16:23;;;;;;;1.60;0.80;;;;;;;10.27;74.09;99167.74;1756164;79;21202;-52
2021/05/21 02:18:50;;;;;;;9.05;1.40;;;;;;;10.23;74.09;99161.18;1722426;81;21096;-52
2021/05/21 02:21:16;;;;;;;2.30;0.80;;;;;;;10.21;73.97;99168.94;1758441;79;21152;-49
2021/05/21 02:23:42;;;;;;;3.45;1.00;;;;;;;10.15;73.92;99175.98;1758503;79;21364;-50
2021/05/21 02:26:09;;;;;;;2.75;1.05;;;;;;;10.11;74.11;99176.64;1756205;79;21525;-51
2021/05/21 02:28:35;;;;;;;6.50;1.62;;;;;;;10.09;74.23;99177.67;1759473;79;21067;-52
2021/05/21 02:31:02;;;;;;;2.60;1.00;;;;;;;10.07;74.53;99176.88;1756963;79;21830;-49
2021/05/21 02:33:28;;;;;;;2.08;0.60;;;;;;;10.07;74.70;99175.53;1758785;79;21158;-50
2021/05/21 02:35:55;;;;;;;1.75;0.68;;;;;;;10.08;75.07;99175.92;1757609;79;21115;-54
2021/05/21 02:38:21;;;;;;;4.33;0.80;;;;;;;10.11;75.19;99175.77;1765476;79;21403;-48
2021/05/21 02:40:48;;;;;;;1.50;0.80;;;;;;;10.13;75.17;99178.74;1699145;82;21480;-52
2021/05/21 02:43:15;;;;;;;1.50;0.70;;;;;;;10.14;75.15;99170.20;1698950;82;21417;-50
2021/05/21 02:45:41;;;;;;;2.22;0.80;;;;;;;10.14;75.19;99179.14;1760035;79;21499;-51
2021/05/21 02:48:07;;;;;;;4.53;0.70;;;;;;;10.14;75.29;99179.61;1758852;79;21134;-51
2021/05/21 02:50:34;;;;;;;1.15;0.60;;;;;;;10.14;75.42;99182.30;1758573;79;21574;-52
2021/05/21 02:53:00;;;;;;;3.10;0.57;;;;;;;10.14;75.66;99179.14;1759910;79;21131;-54
2021/05/21 02:55:26;;;;;;;1.92;0.47;;;;;;;10.19;75.88;99173.08;1759502;79;21059;-50
2021/05/21 02:57:53;;;;;;;1.32;0.50;;;;;;;10.27;76.06;99175.34;1759297;79;21127;-50
2021/05/21 03:00:20;;;;;;;1.20;0.50;;;;;;;10.37;76.10;99177.04;1761200;79;21620;-48
2021/05/21 03:02:47;;;;;;;0.53;0.40;;;;;;;10.48;76.02;99178.63;1756855;79;21567;-49
2021/05/21 03:05:17;;;;;;;0.50;0.40;;;;;;;10.58;76.01;99178.49;1754259;79;20925;-49
2021/05/21 03:07:42;;;;;;;1.75;0.50;;;;;;;10.70;75.83;99184.53;1751757;79;21095;-50
2021/05/21 03:10:10;;;;;;;1.20;0.50;;;;;;;10.80;75.59;99190.25;1751788;79;21088;-53
2021/05/21 03:12:36;;;;;;;0.75;0.50;;;;;;;10.88;75.41;99196.93;1753206;79;20949;-54
2021/05/21 03:15:04;;;;;;;1.17;0.50;;;;;;;10.93;75.27;99196.17;1751512;79;21144;-50
2021/05/21 03:17:32;;;;;;;2.50;0.50;;;;;;;10.96;75.01;99197.83;1755093;79;20953;-49
2021/05/21 03:20:00;;;;;;;4.25;1.05;;;;;;;11.00;75.01;99193.50;1755205;79;21000;-50
2021/05/21 03:22:26;;;;;;;2.12;0.42;;;;;;;11.04;74.84;99190.16;1754433;79;20977;-49
2021/05/21 03:24:52;;;;;;;0.65;0.20;;;;;;;11.11;74.69;99196.05;1757727;79;21080;-50
2021/05/21 03:27:19;;;;;;;0.80;0.40;;;;;;;11.18;74.58;99199.63;1753771;79;21089;-49
2021/05/21 03:29:45;;;;;;;0.45;0.30;;;;;;;11.24;74.52;99206.47;1756395;79;20909;-52
2021/05/21 03:32:12;;;;;;;3.50;0.33;;;;;;;11.30;74.48;99205.65;1753548;79;21423;-52
2021/05/21 03:37:04;;;;;;;1.67;0.30;;;;;;;11.43;74.18;99207.11;1864788;75;22653;-51
2021/05/21 03:39:30;;;;;;;0.30;0.28;;;;;;;11.42;73.77;99213.45;1832802;77;21248;-53
2021/05/21 03:41:57;;;;;;;0.53;0.23;;;;;;;11.45;73.74;99215.98;1835547;77;21501;-50
2021/05/21 03:44:23;;;;;;;1.10;0.30;;;;;;;11.51;73.66;99214.25;1835835;77;21295;-50
2021/05/21 03:46:49;;;;;;;0.60;0.37;;;;;;;11.55;73.42;99216.30;1837324;77;21703;-50
2021/05/21 03:49:16;;;;;;;0.53;0.30;;;;;;;11.60;73.60;99220.91;1831817;75;21556;-50
2021/05/21 03:51:43;;;;;;;0.50;0.30;;;;;;;11.66;73.46;99221.40;1837398;75;21130;-51
2021/05/21 03:54:09;;;;;;;0.78;0.37;;;;;;;11.71;73.49;99220.66;1841412;77;22099;-51
2021/05/21 03:56:36;;;;;;;3.47;0.37;;;;;;;11.77;73.13;99222.13;1838747;77;20990;-51
2021/05/21 03:59:02;;;;;;;1.15;0.40;;;;;;;11.80;73.08;99222.44;1839932;75;20900;-52
2021/05/21 04:01:29;;;;;;;0.40;0.28;;;;;;;11.83;72.56;99220.88;1838789;77;20940;-52
2021/05/21 04:03:57;;;;;;;1.20;0.30;;;;;;;11.88;72.49;99229.09;1839400;75;20942;-51
2021/05/21 04:06:23;;;;;;;1.05;0.30;;;;;;;11.95;72.21;99230.92;1780734;78;21030;-51
2021/05/21 04:08:51;;;;;;;0.23;0.20;;;;;;;11.99;72.21;99227.92;1774426;79;21009;-49
2021/05/21 04:11:17;;;;;;;2.22;0.33;;;;;;;12.06;72.06;99229.30;1774014;79;21566;-53
2021/05/21 04:13:44;;;;;;;0.40;0.35;;;;;;;12.11;72.19;99224.47;1789136;78;21510;-53
2021/05/21 04:16:13;;;;;;;1.62;0.30;;;;;;;12.20;71.60;99224.86;1772334;79;21142;-51
2021/05/21 04:18:40;;;;;;;0.40;0.30;;;;;;;12.26;71.19;99229.85;1773199;79;21280;-51
2021/05/21 04:21:08;;;;;;;1.02;0.30;;;;;;;12.29;71.04;99235.94;1772149;79;21634;-51
2021/05/21 04:23:39;;;;;;;0.50;0.30;;;;;;;12.33;70.89;99233.92;1773204;79;21071;-53
2021/05/21 04:26:06;;;;;;;2.67;0.30;;;;;;;12.40;70.83;99239.31;1799171;78;21636;-52
2021/05/21 04:28:32;;;;;;;0.40;0.30;;;;;;;12.48;70.42;99246.44;1770762;79;21729;-53
2021/05/21 04:30:59;;;;;;;2.83;0.30;;;;;;;12.54;70.56;99247.38;1771689;79;21580;-51
2021/05/21 04:33:25;;;;;;;0.50;0.40;;;;;;;12.61;70.46;99247.37;1784106;78;21622;-52
2021/05/21 04:35:52;;;;;;;0.60;0.30;;;;;;;12.66;70.04;99242.56;1770033;79;21043;-52
2021/05/21 04:38:18;;;;;;;0.93;0.50;;;;;;;12.70;69.91;99251.31;1799721;77;21071;-51
2021/05/21 04:40:45;;;;;;;1.95;0.30;;;;;;;12.77;69.82;99248.59;1799793;78;21126;-51
2021/05/21 04:43:11;;;;;;;0.90;0.30;;;;;;;12.84;69.78;99252.14;1794954;78;22770;-51
2021/05/21 04:45:37;;;;;;;0.40;0.30;;;;;;;12.92;69.69;99248.97;1801527;77;21189;-51
2021/05/21 04:48:05;;;;;;;0.55;0.35;;;;;;;13.00;69.89;99247.97;1774018;78;21118;-50
2021/05/21 04:50:31;;;;;;;1.27;0.30;;;;;;;13.12;69.76;99251.19;1782788;78;20969;-51
2021/05/21 04:52:57;;;;;;;1.72;0.78;;;;;;;13.24;69.59;99257.18;1782371;79;21611;-50
2021/05/21 04:55:25;;;;;;;0.98;0.40;;;;;;;13.34;69.34;99260.14;1768660;80;21585;-51
2021/05/21 04:57:51;;;;;;;0.72;0.40;;;;;;;13.44;69.07;99254.46;1800637;78;21415;-50
2021/05/21 05:00:20;;;;;;;0.60;0.40;;;;;;;13.52;68.41;99258.03;1771315;78;21090;-51
2021/05/21 05:02:46;;;;;;;0.90;0.47;;;;;;;13.56;68.18;99267.65;1803207;78;21003;-52
2021/05/21 05:05:12;;;;;;;1.40;0.30;;;;;;;13.57;67.92;99267.55;1777297;78;21098;-52
2021/05/21 05:07:39;;;;;;;0.60;0.33;;;;;;;13.58;67.56;99273.34;1760114;79;21610;-52
2021/05/21 05:10:06;;;;;;;0.40;0.30;;;;;;;13.62;67.68;99272.62;1772674;79;21246;-50
2021/05/21 05:12:33;;;;;;;3.22;0.40;;;;;;;13.70;67.66;99278.38;1777580;78;21071;-52
2021/05/21 05:14:59;;;;;;;1.32;0.57;;;;;;;13.79;67.42;99276.88;1799671;78;21107;-52
2021/05/21 05:17:26;;;;;;;2.05;0.40;;;;;;;13.87;67.02;99282.63;1797859;78;21114;-49
2021/05/21 05:19:52;;;;;;;1.85;0.50;;;;;;;13.93;66.20;99274.11;1801264;78;22395;-51
2021/05/21 05:22:19;;;;;;;0.80;0.50;;;;;;;13.98;65.25;99271.45;1804187;78;20971;-51
2021/05/21 05:24:45;;;;;;;0.60;0.50;;;;;;;14.01;63.99;99278.02;1799485;77;20975;-50
2021/05/21 05:27:11;;;;;;;0.80;0.50;;;;;;;14.00;63.99;99280.83;1798506;78;21645;-50
2021/05/21 05:29:38;;;;;;;0.80;0.60;;;;;;;13.98;64.00;99280.92;1797234;78;22260;-50
2021/05/21 05:32:05;;;;;;;1.92;0.60;;;;;;;13.96;63.94;99285.57;1780004;78;21644;-53
2021/05/21 05:34:32;;;;;;;0.93;0.60;;;;;;;13.95;64.12;99290.59;1772487;79;21174;-52
2021/05/21 05:36:58;;;;;;;0.95;0.50;;;;;;;13.94;63.27;99294.30;1778490;78;21059;-50
2021/05/21 05:39:24;;;;;;;3.08;0.70;;;;;;;13.94;63.26;99289.38;1754915;80;21164;-52
2021/05/21 05:41:52;;;;;;;1.40;0.50;;;;;;;13.95;63.09;99295.17;1753200;80;21066;-52
2021/05/21 05:44:19;;;;;;;0.45;0.40;;;;;;;13.99;63.47;99292.62;1736010;80;22269;-51
2021/05/21 05:46:46;;;;;;;0.70;0.45;;;;;;;14.00;62.42;99294.36;1750696;80;21802;-54
2021/05/21 05:49:14;;;;;;;0.62;0.50;;;;;;;13.98;62.59;99290.39;1750497;80;21501;-53
2021/05/21 05:51:40;;;;;;;1.60;0.80;;;;;;;13.99;62.30;99290.78;1734686;80;21629;-52
2021/05/21 05:54:07;;;;;;;0.62;0.47;;;;;;;13.98;62.25;99286.82;1751955;80;22490;-53
2021/05/21 05:56:33;;;;;;;3.22;0.40;;;;;;;13.95;62.51;99293.30;1750420;80;21112;-54
2021/05/21 05:58:59;;;;;;;0.75;0.40;;;;;;;13.97;62.10;99291.84;1797341;78;21070;-51
2021/05/21 06:01:26;;;;;;;6.53;0.50;;;;;;;14.01;62.23;99283.43;1796714;78;21115;-52
2021/05/21 06:03:52;;;;;;;2.15;0.50;;;;;;;14.09;61.89;99288.78;1794093;78;20984;-52
2021/05/21 06:06:18;;;;;;;1.75;0.65;;;;;;;14.14;62.16;99284.77;1789513;78;21416;-51
2021/05/21 06:08:45;;;;;;;0.78;0.50;;;;;;;14.23;62.04;99283.27;1791043;78;21387;-53
2021/05/21 06:11:11;;;;;;;1.75;0.60;;;;;;;14.29;61.96;99285.05;1791966;78;21141;-50
2021/05/21 06:13:38;;;;;;;2.05;0.50;;;;;;;14.36;61.95;99282.80;1793427;78;21083;-51
2021/05/21 06:16:04;;;;;;;1.20;0.40;;;;;;;14.42;62.15;99280.16;1791805;78;21134;-52
2021/05/21 06:18:31;;;;;;;2.45;0.45;;;;;;;14.51;62.27;99282.20;1793362;78;21206;-50
2021/05/21 06:20:58;;;;;;;1.30;0.40;;;;;;;14.59;60.99;99279.33;1793020;78;21134;-52
2021/05/21 06:23:24;;;;;;;2.83;0.50;;;;;;;14.68;60.04;99280.02;1791649;77;21111;-51
2021/05/21 06:28:21;;;;;;;0.50;0.30;;;;;;;14.85;59.11;99283.34;1790871;78;22257;-52
2021/05/21 06:30:47;;;;;;;3.15;0.50;;;;;;;14.89;58.44;99280.28;1794728;78;20927;-50
2021/05/21 06:33:14;;;;;;;1.25;0.40;;;;;;;14.96;58.58;99283.44;1798492;78;21039;-51
2021/05/21 06:35:40;;;;;;;1.27;0.35;;;;;;;15.02;58.79;99287.91;1797449;78;20970;-52
2021/05/21 06:38:07;;;;;;;1.00;0.50;;;;;;;15.17;58.15;99280.47;1769597;78;20960;-52
2021/05/21 06:40:33;;;;;;;0.47;0.30;;;;;;;15.27;58.14;99285.59;1748562;80;20976;-52
2021/05/21 06:43:00;;;;;;;0.80;0.40;;;;;;;15.27;58.14;99285.59;1783208;78;22076;-50
2021/05/21 06:45:26;;;;;;;0.90;0.30;;;;;;;15.34;58.29;99280.56;1704064;80;21007;-52
2021/05/21 06:47:52;;;;;;;2.05;0.37;;;;;;;15.42;58.22;99290.34;1762472;80;20976;-50
2021/05/21 06:50:19;;;;;;;0.53;0.50;;;;;;;15.49;57.73;99300.61;1761622;80;20976;-50
2021/05/21 06:52:45;;;;;;;1.27;0.30;;;;;;;15.55;56.90;99292.55;1765549;80;20933;-51
2021/05/21 06:55:13;;;;;;;2.98;0.60;;;;;;;15.60;56.94;99302.55;1757174;80;20960;-51
2021/05/21 06:57:40;;;;;;;0.55;0.47;;;;;;;15.63;55.75;99290.61;1760287;79;22613;-53
2021/05/21 07:00:07;;;;;;;3.40;0.50;;;;;;;15.63;55.41;99291.48;1757295;80;21817;-52
2021/05/21 07:02:35;;;;;;;0.60;0.40;;;;;;;15.52;56.31;99301.75;1751447;80;21023;-53
2021/05/21 07:05:02;;;;;;;3.35;0.40;;;;;;;15.52;56.31;99301.75;1765318;80;21146;-53
2021/05/21 07:07:31;;;;;;;1.22;0.50;;;;;;;15.48;56.07;99307.54;1759993;80;21436;-53
2021/05/21 07:09:56;;;;;;;0.75;0.40;;;;;;;15.47;57.01;99311.23;1767935;79;21148;-52
2021/05/21 07:12:23;;;;;;;2.30;0.40;;;;;;;15.46;56.81;99304.06;1770773;80;21041;-52
2021/05/21 07:14:51;;;;;;;1.90;0.50;;;;;;;15.49;57.11;99308.75;1777326;80;21103;-55
2021/05/21 07:17:17;;;;;;;3.50;0.30;;;;;;;15.51;57.73;99304.08;1768769;80;21508;-53
2021/05/21 07:19:44;;;;;;;0.30;0.20;;;;;;;15.53;57.55;99314.83;1765498;79;21577;-55
2021/05/21 07:22:10;;;;;;;0.80;0.30;;;;;;;15.52;57.31;99310.38;1772248;78;21083;-52
2021/05/21 07:24:36;;;;;;;0.55;0.30;;;;;;;15.53;57.14;99313.47;1781620;78;21182;-53
2021/05/21 07:27:04;;;;;;;0.90;0.30;;;;;;;15.53;56.31;99316.18;1744450;80;21086;-53
2021/05/21 07:29:30;;;;;;;0.85;0.30;;;;;;;15.52;56.05;99317.16;1764478;80;20933;-53
2021/05/21 07:31:57;;;;;;;0.68;0.37;;;;;;;15.46;56.30;99323.05;1763584;80;20996;-53
2021/05/21 07:34:23;;;;;;;1.20;0.30;;;;;;;15.42;56.96;99321.05;1764177;80;21948;-53
2021/05/21 07:36:52;;;;;;;0.40;0.33;;;;;;;15.42;57.24;99331.03;1765263;79;21119;-52
2021/05/21 07:39:20;;;;;;;1.42;0.30;;;;;;;15.40;58.07;99319.42;1776116;79;21000;-52
2021/05/21 07:41:46;;;;;;;0.75;0.40;;;;;;;15.46;58.64;99326.63;1779189;79;21758;-53
2021/05/21 07:44:12;;;;;;;0.42;0.40;;;;;;;15.53;59.38;99325.67;1777562;78;21086;-54
2021/05/21 07:46:40;;;;;;;0.40;0.40;;;;;;;15.55;58.41;99323.75;1776531;79;22650;-53
2021/05/21 07:49:08;;;;;;;1.17;0.30;;;;;;;15.57;58.04;99321.77;1777254;79;21757;-53
2021/05/21 07:51:34;;;;;;;0.62;0.25;;;;;;;15.65;57.15;99325.28;1779441;79;21067;-54
2021/05/21 07:54:00;;;;;;;0.45;0.20;;;;;;;15.71;56.75;99341.09;1782055;79;21173;-53
2021/05/21 07:56:27;;;;;;;2.05;0.40;;;;;;;15.76;57.00;99328.89;1777473;79;22545;-53
2021/05/21 07:58:53;;;;;;;0.42;0.20;;;;;;;15.83;55.58;99334.22;1774624;79;21197;-53
2021/05/21 08:01:20;;;;;;;0.65;0.15;;;;;;;15.86;55.23;99325.86;1776106;78;21102;-53
2021/05/21 08:03:48;;;;;;;0.85;0.20;;;;;;;15.92;54.76;99331.78;1775576;78;21321;-53
2021/05/21 08:06:15;;;;;;;0.30;0.20;;;;;;;15.96;54.06;99335.52;1772721;78;21150;-53
2021/05/21 08:08:41;;;;;;;0.10;0.10;;;;;;;16.00;53.92;99330.70;1776912;79;21103;-52
2021/05/21 08:11:08;;;;;;;0.30;0.30;;;;;;;16.08;55.03;99335.05;1778803;79;21075;-53
2021/05/21 08:13:39;;;;;;;1.55;0.20;;;;;;;16.19;53.08;99321.52;1781216;79;21111;-55
2021/05/21 08:16:12;;;;;;;0.45;0.10;;;;;;;16.32;50.81;99328.22;1782802;79;21795;-53
2021/05/21 08:18:40;;;;;;;0.23;0.10;;;;;;;16.36;50.67;99323.77;1785953;79;20951;-52
2021/05/21 08:21:07;;;;;;;1.72;0.10;;;;;;;16.44;50.92;99321.31;1785708;79;21178;-52
2021/05/21 08:23:34;;;;;;;0.20;0.10;;;;;;;16.53;51.26;99317.01;1781242;79;22542;-53
2021/05/21 08:26:00;;;;;;;0.15;0.15;;;;;;;16.63;51.80;99313.97;1776955;79;21100;-52
2021/05/21 08:28:27;;;;;;;1.82;0.10;;;;;;;16.75;51.04;99327.95;1779321;79;21012;-52
2021/05/21 08:30:53;;;;;;;0.10;0.10;;;;;;;16.83;50.04;99323.25;1779672;79;21631;-53
2021/05/21 08:33:20;;;;;;;0.10;0.10;;;;;;;16.91;49.88;99328.93;1778558;79;21699;-52
2021/05/21 08:35:47;;;;;;;0.20;0.10;;;;;;;16.97;47.87;99329.30;1778230;79;21162;-51
2021/05/21 08:38:14;;;;;;;0.00;0.00;;;;;;;17.00;47.16;99323.62;1769672;79;21125;-51
2021/05/21 08:40:41;;;;;;;0.10;0.10;;;;;;;16.97;46.41;99317.55;1764874;79;21142;-52
2021/05/21 08:43:09;;;;;;;0.30;0.10;;;;;;;16.96;45.83;99321.25;1758416;79;21082;-52
2021/05/21 08:45:38;;;;;;;1.30;0.20;;;;;;;16.97;46.67;99326.57;1761018;79;21035;-53
2021/05/21 08:48:05;;;;;;;0.85;0.10;;;;;;;17.02;46.93;99327.05;1763077;79;21528;-53
2021/05/21 08:50:32;;;;;;;0.40;0.20;;;;;;;17.12;46.96;99331.25;1764235;79;20939;-52
2021/05/21 08:52:58;;;;;;;0.10;0.10;;;;;;;17.19;46.43;99335.69;1760503;79;21090;-53
2021/05/21 08:55:26;;;;;;;0.45;0.10;;;;;;;17.25;46.70;99322.47;1759705;79;21768;-52
2021/05/21 08:57:53;;;;;;;0.10;0.10;;;;;;;17.33;47.10;99329.50;1757113;79;21162;-52
2021/05/21 09:00:20;;;;;;;1.10;0.10;;;;;;;17.43;47.26;99327.38;1763236;79;21114;-52
2021/05/21 09:02:47;;;;;;;0.10;0.10;;;;;;;17.54;46.80;99332.77;1763058;79;21141;-55
2021/05/21 09:05:14;;;;;;;0.10;0.10;;;;;;;17.62;45.60;99329.81;1765118;79;20926;-53
2021/05/21 09:07:42;;;;;;;0.53;0.10;;;;;;;17.67;45.22;99327.59;1764309;79;20923;-52
2021/05/21 09:10:18;;;;;;;1.22;0.20;;;;;;;17.71;44.67;99332.26;1764536;79;20950;-53
2021/05/21 09:12:52;;;;;;;0.55;0.10;;;;;;;17.70;44.65;99332.75;1763451;79;21047;-52
2021/05/21 09:15:21;;;;;;;0.10;0.10;;;;;;;17.70;45.24;99329.16;1764168;79;20983;-52
2021/05/21 09:18:00;;;;;;;0.10;0.10;;;;;;;17.70;45.35;99330.03;1765045;79;20959;-53
2021/05/21 09:20:30;;;;;;;0.20;0.10;;;;;;;17.73;45.64;99335.72;1761778;79;21373;-52
2021/05/21 09:23:10;;;;;;;1.45;0.20;;;;;;;17.83;45.77;99338.53;1764720;79;21018;-53
2021/05/21 09:25:40;;;;;;;0.55;0.10;;;;;;;17.85;45.46;99345.59;1761999;79;21037;-53
2021/05/21 09:28:35;;;;;;;0.20;0.10;;;;;;;17.85;44.73;99338.78;1765188;79;20927;-54
2021/05/21 09:31:10;;;;;;;1.12;0.10;;;;;;;17.78;44.56;99345.22;1764894;79;21465;-53
2021/05/21 09:33:38;;;;;;;0.68;0.20;;;;;;;17.68;43.61;99347.02;1768216;79;20943;-54
2021/05/21 09:36:05;;;;;;;1.85;0.10;;;;;;;17.65;43.65;99342.30;1764532;79;20890;-54
2021/05/21 09:38:48;;;;;;;2.98;0.20;;;;;;;17.65;43.37;99336.86;1770250;79;21087;-53
2021/05/21 09:41:15;;;;;;;0.60;0.10;;;;;;;17.70;43.86;99330.53;1766751;79;20980;-54
2021/05/21 09:43:53;;;;;;;0.20;0.10;;;;;;;17.80;43.89;99333.34;1764647;79;20967;-53
2021/05/21 09:46:19;;;;;;;1.10;0.10;;;;;;;17.92;41.11;99329.59;1764351;79;21023;-55
2021/05/21 09:48:46;;;;;;;2.85;0.10;;;;;;;18.01;40.58;99324.72;1762415;79;20928;-54
2021/05/21 09:51:13;;;;;;;0.42;0.20;;;;;;;18.03;40.56;99330.38;1782341;78;21064;-55
2021/05/21 09:53:39;;;;;;;0.57;0.20;;;;;;;18.06;41.10;99334.22;1748034;80;20957;-55
2021/05/21 09:56:09;;;;;;;0.20;0.20;;;;;;;18.05;40.87;99335.21;1747669;80;20995;-54
2021/05/21 09:58:43;;;;;;;0.20;0.10;;;;;;;17.96;41.41;99329.19;1761912;79;21046;-54
2021/05/21 10:01:22;;;;;;;1.17;0.17;;;;;;;17.87;42.35;99339.98;1761923;79;21069;-53
2021/05/21 10:03:56;;;;;;;0.20;0.10;;;;;;;17.83;43.78;99335.81;1764733;79;21001;-54
2021/05/21 10:06:25;;;;;;;;;;;;;;;17.78;42.97;99334.33;1763158;79;21107;-55
2021/05/21 10:08:55;;;;;;;0.10;0.10;;;;;;;17.75;41.84;99344.63;1760664;79;20280;-53
2021/05/21 10:11:19;;;;;;;0.10;0.10;;;;;;;17.67;39.95;99341.20;1757588;79;21169;-54
2021/05/21 10:13:46;;;;;;;0.68;0.10;;;;;;;17.58;39.40;99339.21;1761271;79;21081;-53
2021/05/21 10:16:15;;;;;;;0.10;0.10;;;;;;;17.55;40.25;99335.86;1761917;79;21080;-53
2021/05/21 10:19:47;;;;;;;0.10;0.10;;;;;;;17.64;40.47;99329.69;1791922;78;27632;-54
2021/05/21 10:22:26;;;;;;;0.10;0.10;;;;;;;17.69;40.91;99322.02;1769132;79;21461;-53
2021/05/21 10:24:55;;;;;;;0.30;0.10;;;;;;;17.78;41.48;99326.66;1768957;79;21406;-54
2021/05/21 10:27:25;;;;;;;0.15;0.10;;;;;;;17.86;41.24;99318.73;1771922;78;21045;-54
2021/05/21 10:30:04;;;;;;;1.17;0.10;;;;;;;17.91;41.06;99323.28;1769581;79;21152;-55
2021/05/21 10:32:30;;;;;;;0.40;0.10;;;;;;;17.92;40.02;99320.93;1706500;82;22267;-54
2021/05/21 10:34:58;;;;;;;1.22;0.10;;;;;;;17.90;40.04;99326.99;1705406;81;21132;-54
2021/05/21 10:37:44;;;;;;;0.10;0.10;;;;;;;17.90;40.20;99332.44;1737472;81;21079;-54
2021/05/21 10:40:29;;;;;;;2.55;0.10;;;;;;;17.92;39.75;99329.59;1736603;81;21016;-53
2021/05/21 10:43:17;;;;;;;0.10;0.10;;;;;;;17.92;40.03;99323.66;1709730;82;21458;-53
2021/05/21 10:46:00;;;;;;;0.60;0.10;;;;;;;17.97;39.48;99317.80;1682290;83;21387;-54
2021/05/21 10:48:28;;;;;;;0.33;0.10;;;;;;;18.01;40.39;99317.42;1708650;82;21092;-53
2021/05/21 10:51:10;;;;;;;0.85;0.10;;;;;;;18.10;40.77;99322.08;1681075;83;22306;-54
2021/05/21 10:53:45;;;;;;;0.20;0.10;;;;;;;18.21;39.88;99322.50;1684699;83;21059;-55
2021/05/21 10:56:11;;;;;;;0.23;0.10;;;;;;;18.25;39.73;99317.66;1683734;84;21119;-54
2021/05/21 10:58:55;;;;;;;0.10;0.10;;;;;;;18.28;39.21;99314.68;1684054;84;21721;-55
2021/05/21 11:01:20;;;;;;;0.13;0.13;;;;;;;18.30;39.51;99320.83;1677485;84;21072;-53
2021/05/21 11:04:06;;;;;;;0.23;0.10;;;;;;;18.33;39.29;99325.53;1681758;84;21666;-54
2021/05/21 11:06:49;;;;;;;0.20;0.10;;;;;;;18.40;40.72;99315.83;1681090;84;21123;-53
2021/05/21 11:09:26;;;;;;;0.30;0.10;;;;;;;18.50;40.52;99318.61;1680441;84;21175;-53
2021/05/21 11:12:03;;;;;;;0.10;0.10;;;;;;;18.59;39.57;99313.75;1683448;84;21581;-52
2021/05/21 11:14:38;;;;;;;1.37;0.17;;;;;;;18.63;37.91;99319.28;1681568;84;21133;-52
2021/05/21 11:17:14;;;;;;;0.20;0.10;;;;;;;18.66;38.07;99314.93;1686124;84;21120;-53
2021/05/21 11:19:59;;;;;;;0.15;0.10;;;;;;;18.68;38.36;99317.53;1667364;84;21024;-53
2021/05/21 11:22:37;;;;;;;0.20;0.20;;;;;;;18.66;38.23;99309.98;1665535;85;21049;-52
2021/05/21 11:25:16;;;;;;;0.50;0.15;;;;;;;18.59;38.48;99308.80;1666741;85;21062;-52
2021/05/21 11:27:44;;;;;;;0.47;0.10;;;;;;;18.52;38.77;99309.31;1662878;85;21159;-52
2021/05/21 11:30:14;;;;;;;0.35;0.20;;;;;;;18.45;38.81;99314.94;1623224;85;21340;-53
2021/05/21 11:32:41;;;;;;;0.80;0.13;;;;;;;18.43;39.02;99310.61;1670081;85;21977;-53
2021/05/21 11:35:10;;;;;;;0.25;0.10;;;;;;;18.49;39.26;99312.30;1664097;85;21133;-52
2021/05/21 11:37:39;;;;;;;0.13;0.10;;;;;;;18.58;38.84;99318.84;1725960;82;21438;-54
2021/05/21 11:40:07;;;;;;;3.25;0.10;;;;;;;18.66;38.23;99320.38;1730903;82;20961;-53
2021/05/21 11:42:37;;;;;;;0.20;0.20;;;;;;;18.74;38.33;99308.80;1730188;82;21028;-54
2021/05/21 11:45:06;;;;;;;0.57;0.17;;;;;;;18.77;38.81;99309.90;1728126;82;21132;-53